Time;durP1;ratioP1;P1;durP2;ratioP2;P2;SDS_P1;SDS_P2;PMS_P1;PMS_P2;Temp;Humidity;BMP_temperature;BMP_pressure;BME280_temperature;BME280_humidity;BME280_pressure;Samples;Min_cycle;Max_cycle;Signal;HPM_P1;HPM_P2
2021/04/19 00:11:21;;;;;;;35.90;18.02;;;8.70;99.90;;;;;;5218510;23;20050;-83
2021/04/19 05:09:38;;;;;;;18.92;11.85;;;7.40;99.90;;;;;;5391774;23;20039;-80
2021/04/19 05:50:25;;;;;;;26.30;15.65;;;8.10;99.90;;;;;;5121217;23;19979;31
2021/04/19 05:53:03;;;;;;;21.55;11.52;;;8.20;99.90;;;;;;5650467;23;20053;-87
2021/04/19 07:04:38;;;;;;;25.08;14.55;;;9.90;99.90;;;;;;3542863;40;20024;-81
2021/04/19 07:25:55;;;;;;;29.25;15.30;;;10.30;99.90;;;;;;3938090;23;20127;-80
2021/04/19 08:32:22;;;;;;;23.60;14.88;;;11.90;99.90;;;;;;1334911;23;20210;-86
2021/04/19 08:40:51;;;;;;;27.30;14.85;;;12.50;99.90;;;;;;2938341;23;20046;-86
2021/04/19 08:43:21;;;;;;;27.95;14.45;;;12.70;99.90;;;;;;3562090;40;20042;-86
2021/04/19 08:49:12;;;;;;;22.15;13.93;;;12.70;99.90;;;;;;3657310;23;20027;-88
2021/04/19 08:57:30;;;;;;;22.02;12.77;;;12.60;99.90;;;;;;3656117;23;20053;-91
2021/04/19 09:00:27;;;;;;;22.55;13.70;;;12.60;99.90;;;;;;3619390;23;20062;-86
2021/04/19 09:03:01;;;;;;;24.17;13.60;;;12.70;99.90;;;;;;3582432;23;20058;31
2021/04/19 09:05:29;;;;;;;22.13;13.05;;;12.90;99.90;;;;;;3546756;40;20283;-87
2021/04/19 09:10:53;;;;;;;22.83;14.18;;;13.00;99.90;;;;;;3557499;40;20061;-84
2021/04/19 09:13:28;;;;;;;21.20;12.60;;;13.00;99.90;;;;;;3544687;40;20034;-87
2021/04/19 09:16:16;;;;;;;20.52;11.93;;;13.00;99.90;;;;;;3624340;23;20067;-86
2021/04/19 09:19:16;;;;;;;19.52;11.23;;;13.00;99.90;;;;;;3540734;40;20063;-86
2021/04/19 09:30:32;;;;;;;18.92;12.57;;;13.10;99.90;;;;;;3570028;40;20053;-86
2021/04/19 09:33:24;;;;;;;20.58;11.45;;;13.10;99.90;;;;;;3570434;40;20054;-86
2021/04/19 09:35:54;;;;;;;15.93;11.88;;;13.20;99.90;;;;;;3560694;40;20067;-87
2021/04/19 09:38:41;;;;;;;;;;;13.20;99.90;;;;;;3544909;40;20045;-88
2021/04/19 09:41:17;;;;;;;20.10;11.27;;;13.10;99.90;;;;;;3559663;40;19961;-89
2021/04/19 09:43:52;;;;;;;23.05;12.75;;;13.10;99.90;;;;;;3569543;40;20061;-87
2021/04/19 09:46:29;;;;;;;22.48;13.13;;;13.20;99.90;;;;;;3557610;40;20287;-88
2021/04/19 09:49:04;;;;;;;20.13;12.55;;;13.30;99.90;;;;;;3567685;40;20062;-86
2021/04/19 09:51:36;;;;;;;23.98;13.80;;;13.70;99.90;;;;;;3567434;40;20053;-87
2021/04/19 09:54:08;;;;;;;21.08;14.07;;;14.20;99.90;;;;;;3557713;40;20069;-89
2021/04/19 09:56:42;;;;;;;21.15;13.43;;;14.70;99.90;;;;;;3537503;40;20099;-87
2021/04/19 09:59:15;;;;;;;30.95;14.85;;;15.30;99.90;;;;;;3530862;40;20087;-88
2021/04/19 10:01:49;;;;;;;26.67;14.90;;;15.70;99.90;;;;;;3532020;40;20091;-85
2021/04/19 10:04:17;;;;;;;22.42;13.27;;;16.20;99.90;;;;;;3522950;40;20454;-87
2021/04/19 10:06:49;;;;;;;19.13;12.82;;;16.50;99.90;;;;;;3536825;40;20099;-88
2021/04/19 10:09:22;;;;;;;20.80;12.98;;;16.70;98.70;;;;;;3528156;40;20421;-85
2021/04/19 10:11:58;;;;;;;28.25;15.07;;;16.60;97.90;;;;;;3536095;40;20095;-88
2021/04/19 10:14:27;;;;;;;29.50;16.92;;;16.30;97.90;;;;;;3535806;40;20074;-86
2021/04/19 10:17:02;;;;;;;;;;;15.90;98.90;;;;;;3533000;40;20043;-85
2021/04/19 10:19:39;;;;;;;28.10;17.27;;;15.50;99.60;;;;;;3540614;40;19967;-87
2021/04/19 10:22:21;;;;;;;28.55;18.13;;;15.20;99.90;;;;;;3536700;40;20062;-88
2021/04/19 10:24:58;;;;;;;30.23;19.55;;;15.10;99.90;;;;;;3534961;40;20046;-88
2021/04/19 10:27:29;;;;;;;27.35;18.30;;;16.10;99.90;;;;;;3534290;40;20051;-90
2021/04/19 10:30:09;;;;;;;25.13;16.67;;;17.10;96.30;;;;;;3529849;40;20091;-88
2021/04/19 10:32:38;;;;;;;23.35;16.60;;;18.30;93.10;;;;;;3545499;40;20090;-86
2021/04/19 10:35:31;;;;;;;22.48;15.63;;;19.60;79.50;;;;;;3544728;40;20083;-83
2021/04/19 10:38:00;;;;;;;25.15;14.55;;;20.90;66.80;;;;;;3544152;40;20090;-85
2021/04/19 10:40:30;;;;;;;27.88;15.88;;;21.50;61.20;;;;;;3532075;40;20095;-83
2021/04/19 10:43:09;;;;;;;26.00;18.15;;;21.30;58.70;;;;;;3539437;40;20082;-85
2021/04/19 10:45:37;;;;;;;26.42;17.50;;;20.80;57.30;;;;;;3543653;40;20082;-83
2021/04/19 10:48:20;;;;;;;28.20;17.45;;;20.20;59.00;;;;;;3538896;40;20098;-84
2021/04/19 10:50:48;;;;;;;25.35;16.90;;;19.80;60.40;;;;;;3546790;40;20103;-86
2021/04/19 10:53:35;;;;;;;23.88;15.95;;;20.50;59.40;;;;;;3546810;40;20083;-85
2021/04/19 10:56:05;;;;;;;25.83;17.50;;;20.90;55.10;;;;;;3535382;40;20042;-85
2021/04/19 10:58:35;;;;;;;21.73;15.90;;;20.70;55.50;;;;;;3561820;40;20045;-83
2021/04/19 11:01:03;;;;;;;19.77;14.07;;;20.70;55.00;;;;;;3557309;40;20094;-85
2021/04/19 11:03:35;;;;;;;22.50;15.88;;;20.90;55.50;;;;;;3547542;40;20066;-83
2021/04/19 11:06:04;;;;;;;28.38;17.23;;;20.90;53.60;;;;;;3549874;40;20074;-84
2021/04/19 11:09:01;;;;;;;;;;;20.10;55.80;;;;;;3552064;40;20086;-83
2021/04/19 11:11:42;;;;;;;23.05;16.38;;;19.50;57.70;;;;;;3523787;40;20018;-86
2021/04/19 11:14:16;;;;;;;25.25;16.00;;;19.10;59.10;;;;;;3521823;40;20067;-85
2021/04/19 11:17:05;;;;;;;20.00;12.70;;;19.30;58.80;;;;;;3534482;40;20106;-84
2021/04/19 11:19:41;;;;;;;23.77;15.93;;;19.90;56.00;;;;;;3527459;40;20071;-86
2021/04/19 11:22:22;;;;;;;23.90;14.98;;;19.70;55.90;;;;;;3538696;40;20076;-86
2021/04/19 11:24:50;;;;;;;23.60;15.52;;;19.30;57.40;;;;;;3525397;40;20114;-84
2021/04/19 11:27:24;;;;;;;30.77;16.13;;;18.90;57.80;;;;;;3531336;40;20078;-86
2021/04/19 11:29:53;;;;;;;19.42;14.13;;;19.70;57.50;;;;;;3520468;40;20302;-84
2021/04/19 11:32:32;;;;;;;18.55;13.52;;;21.10;54.70;;;;;;3523660;40;20066;-86
2021/04/19 11:35:01;;;;;;;17.95;12.48;;;22.60;50.60;;;;;;3523128;40;20366;-84
2021/04/19 11:37:58;;;;;;;19.45;13.75;;;23.80;48.10;;;;;;3577850;23;20508;-88
2021/04/19 11:43:27;;;;;;;18.65;12.88;;;26.10;42.80;;;;;;3557601;40;20042;-86
2021/04/19 11:54:41;;;;;;;25.40;13.18;;;25.70;41.90;;;;;;2017798;23;20212;-87
2021/04/19 11:57:10;;;;;;;17.33;11.70;;;26.70;41.30;;;;;;3520810;40;20033;-86
2021/04/19 12:05:50;;;;;;;16.33;12.65;;;25.10;40.10;;;;;;3710073;23;20067;-85
2021/04/19 12:08:22;;;;;;;15.27;11.45;;;23.90;41.30;;;;;;3738734;23;20095;-88
2021/04/19 12:14:04;;;;;;;19.73;12.20;;;23.80;41.80;;;;;;3830825;23;20067;-88
2021/04/19 12:22:24;;;;;;;24.08;14.38;;;27.60;37.00;;;;;;3671332;23;21342;-87
2021/04/19 12:28:09;;;;;;;25.95;15.98;;;27.50;37.20;;;;;;3559336;40;20051;-86
2021/04/19 12:30:42;;;;;;;22.63;16.38;;;26.40;37.90;;;;;;3663971;23;20070;-85
2021/04/19 12:33:17;;;;;;;27.17;17.23;;;25.00;39.50;;;;;;3523660;40;20219;-85
2021/04/19 12:35:55;;;;;;;25.97;17.87;;;23.90;41.40;;;;;;3505945;40;20056;-87
2021/04/19 12:38:28;;;;;;;23.10;16.48;;;23.20;42.80;;;;;;3512560;40;20088;-85
2021/04/19 12:40:59;;;;;;;28.10;18.25;;;23.30;43.40;;;;;;3508363;40;20107;-86
2021/04/19 12:43:33;;;;;;;28.75;18.85;;;24.00;42.70;;;;;;3526406;40;20068;-85
2021/04/19 12:46:01;;;;;;;24.65;16.27;;;24.80;42.30;;;;;;3518904;40;20107;-85
2021/04/19 12:48:29;;;;;;;26.02;16.17;;;25.10;41.80;;;;;;3528422;40;20091;-83
2021/04/19 12:50:57;;;;;;;22.95;14.43;;;25.20;41.40;;;;;;3511394;40;20087;-84
2021/04/19 12:53:25;;;;;;;28.77;16.10;;;25.20;41.70;;;;;;3504314;40;20087;-83
2021/04/19 12:55:55;;;;;;;18.40;12.93;;;26.20;41.00;;;;;;3511968;40;20095;-85
2021/04/19 12:58:29;;;;;;;21.63;14.18;;;27.30;39.70;;;;;;3502401;41;20079;-84
2021/04/19 13:00:56;;;;;;;21.20;13.68;;;28.20;37.70;;;;;;3511617;40;20056;-83
2021/04/19 13:03:27;;;;;;;;;;;28.30;37.20;;;;;;3522460;40;20098;-84
2021/04/19 13:05:55;;;;;;;20.10;12.63;;;28.70;36.10;;;;;;3540822;40;19942;-81
2021/04/19 13:08:22;;;;;;;19.10;13.20;;;29.30;36.00;;;;;;3548259;40;20065;-85
2021/04/19 13:10:49;;;;;;;19.90;13.27;;;29.50;35.30;;;;;;3546010;40;20071;-84
2021/04/19 13:13:17;;;;;;;17.70;12.35;;;30.00;34.60;;;;;;3545252;40;20058;-83
2021/04/19 13:15:44;;;;;;;16.50;12.77;;;30.30;34.30;;;;;;3523812;40;20071;-84
2021/04/19 13:18:13;;;;;;;17.58;12.80;;;30.00;34.30;;;;;;3533222;40;20087;-84
2021/04/19 13:20:46;;;;;;;18.73;14.18;;;30.50;34.50;;;;;;3532829;40;20075;-84
2021/04/19 13:23:16;;;;;;;17.23;12.93;;;31.10;34.00;;;;;;3534121;40;20067;-84
2021/04/19 13:25:44;;;;;;;17.60;12.90;;;31.40;33.50;;;;;;3541676;40;20074;-86
2021/04/19 13:28:13;;;;;;;19.65;13.48;;;30.30;33.80;;;;;;3538021;40;20079;-87
2021/04/19 13:30:41;;;;;;;17.02;13.00;;;29.20;35.10;;;;;;3544587;40;20078;-86
2021/04/19 13:33:08;;;;;;;19.45;13.70;;;28.40;35.50;;;;;;3542481;40;20071;-86
2021/04/19 13:35:37;;;;;;;18.83;12.77;;;27.60;36.30;;;;;;3533537;40;20095;-87
2021/04/19 13:38:12;;;;;;;20.33;14.02;;;26.80;37.10;;;;;;3518163;40;20341;-85
2021/04/19 13:40:44;;;;;;;18.00;13.13;;;25.90;38.50;;;;;;3543656;40;20071;-86
2021/04/19 13:43:17;;;;;;;28.02;18.98;;;24.80;39.70;;;;;;3553576;40;20301;-86
2021/04/19 13:45:54;;;;;;;19.10;13.15;;;24.70;41.00;;;;;;3549284;40;20295;-85
2021/04/19 13:48:24;;;;;;;18.52;12.32;;;25.60;39.20;;;;;;3542034;40;20062;-84
2021/04/19 13:50:57;;;;;;;19.23;12.63;;;26.60;37.30;;;;;;3542247;40;20098;-84
2021/04/19 13:53:41;;;;;;;18.98;12.18;;;27.60;36.20;;;;;;3544684;40;20094;-86
2021/04/19 13:56:12;;;;;;;18.73;12.32;;;28.70;35.30;;;;;;3545496;40;20091;-86
2021/04/19 13:58:45;;;;;;;16.58;11.50;;;29.80;33.50;;;;;;3532800;40;20339;-84
2021/04/19 14:01:31;;;;;;;18.33;12.35;;;30.60;32.90;;;;;;3536527;40;20086;-86
2021/04/19 14:04:00;;;;;;;18.88;12.32;;;31.20;31.70;;;;;;3532776;40;20071;-85
2021/04/19 14:06:33;;;;;;;18.17;12.60;;;30.00;31.80;;;;;;3536358;40;20082;-84
2021/04/19 14:09:05;;;;;;;15.40;11.85;;;28.30;33.00;;;;;;3531518;40;20067;-84
2021/04/19 14:11:33;;;;;;;18.52;12.88;;;27.10;34.30;;;;;;3544117;40;20091;-85
2021/04/19 14:14:07;;;;;;;19.67;13.52;;;26.60;34.90;;;;;;3527162;40;20060;-85
2021/04/19 14:16:39;;;;;;;22.02;13.93;;;26.90;34.70;;;;;;3549527;40;20086;-85
2021/04/19 14:19:08;;;;;;;18.25;12.52;;;27.20;34.20;;;;;;3538279;40;20187;-84
2021/04/19 14:21:40;;;;;;;21.42;12.93;;;27.10;34.30;;;;;;3548158;40;20074;-86
2021/04/19 14:24:12;;;;;;;20.80;13.68;;;27.80;33.80;;;;;;3527607;40;20107;-84
2021/04/19 14:26:53;;;;;;;22.13;14.88;;;28.90;33.10;;;;;;3528698;40;20075;-86
2021/04/19 14:29:33;;;;;;;19.02;13.32;;;28.90;32.40;;;;;;3525453;40;20087;-87
2021/04/19 14:32:04;;;;;;;21.73;14.23;;;27.60;33.50;;;;;;3517213;40;20057;-86
2021/04/19 14:34:33;;;;;;;21.15;13.38;;;26.40;34.60;;;;;;3520934;41;20032;-87
2021/04/19 14:37:04;;;;;;;20.48;13.90;;;25.40;36.00;;;;;;3495601;41;20057;-84
2021/04/19 14:39:37;;;;;;;24.00;14.20;;;24.90;36.80;;;;;;3502416;40;20052;-85
2021/04/19 14:42:12;;;;;;;20.40;12.80;;;25.30;37.00;;;;;;3494209;41;20057;-86
2021/04/19 14:44:44;;;;;;;20.90;13.95;;;25.60;35.80;;;;;;3476811;41;20040;-84
2021/04/19 14:47:18;;;;;;;18.88;12.27;;;25.00;36.20;;;;;;3491620;40;20037;-85
2021/04/19 14:49:49;;;;;;;22.42;13.90;;;24.10;37.20;;;;;;3502723;40;20025;-86
2021/04/19 14:52:22;;;;;;;23.17;14.50;;;23.00;38.90;;;;;;3526442;23;20044;-87
2021/04/19 14:54:55;;;;;;;24.13;13.90;;;22.30;40.50;;;;;;3552401;40;20038;-86
2021/04/19 14:57:26;;;;;;;25.02;13.50;;;21.90;41.50;;;;;;3543781;40;20095;-86
2021/04/19 15:11:40;;;;;;;20.45;12.90;;;22.80;39.30;;;;;;3698677;23;20067;-88
2021/04/19 15:14:13;;;;;;;18.67;12.18;;;22.40;40.30;;;;;;3556420;40;20051;-87
2021/04/19 15:16:42;;;;;;;18.48;11.93;;;22.40;40.60;;;;;;3536171;40;20050;-85
2021/04/19 15:19:14;;;;;;;19.98;13.07;;;22.40;40.90;;;;;;3538891;40;20038;-86
2021/04/19 15:21:59;;;;;;;18.73;12.30;;;22.40;41.00;;;;;;3540483;40;20043;-86
2021/04/19 15:24:32;;;;;;;21.52;12.82;;;22.20;41.40;;;;;;3536103;40;20039;-87
2021/04/19 15:27:04;;;;;;;20.83;13.25;;;21.70;43.00;;;;;;3533358;40;20031;-84
2021/04/19 15:29:41;;;;;;;23.70;14.20;;;21.40;44.00;;;;;;3538403;40;20070;-86
2021/04/19 15:32:13;;;;;;;22.55;14.20;;;21.10;44.80;;;;;;3527789;40;20091;-83
2021/04/19 15:34:42;;;;;;;21.00;12.40;;;20.70;45.40;;;;;;3541878;40;20164;-85
2021/04/19 15:37:10;;;;;;;20.20;13.18;;;20.40;46.70;;;;;;3535600;40;20079;-84
2021/04/19 15:39:40;;;;;;;20.90;13.60;;;20.30;46.60;;;;;;3535038;40;20107;-83
2021/04/19 15:42:17;;;;;;;20.73;12.90;;;20.90;46.20;;;;;;3535446;40;20317;-83
2021/04/19 15:44:56;;;;;;;19.13;12.40;;;21.70;45.00;;;;;;3528484;40;20095;-85
2021/04/19 15:50:23;;;;;;;20.50;13.02;;;21.50;45.70;;;;;;3537596;40;20074;-83
2021/04/19 15:52:51;;;;;;;25.45;13.55;;;21.70;46.40;;;;;;3531225;40;20098;-85
2021/04/19 15:55:38;;;;;;;25.13;13.90;;;21.80;46.00;;;;;;3530905;40;20071;-85
2021/04/19 15:58:13;;;;;;;19.98;13.88;;;21.70;46.10;;;;;;3538943;40;20097;-86
2021/04/19 16:00:57;;;;;;;19.95;13.07;;;21.40;46.80;;;;;;3531144;40;20494;-85
2021/04/19 16:03:31;;;;;;;19.88;11.82;;;21.40;47.00;;;;;;3532623;40;20099;-85
2021/04/19 16:06:35;;;;;;;21.38;13.27;;;21.90;46.40;;;;;;3522920;40;20066;-84
2021/04/19 16:09:09;;;;;;;21.17;13.65;;;22.80;44.30;;;;;;3532137;40;20079;-85
2021/04/19 16:11:43;;;;;;;20.65;12.70;;;23.40;42.90;;;;;;3536797;40;20175;-85
2021/04/19 16:14:27;;;;;;;22.10;12.38;;;23.70;42.10;;;;;;3536541;40;20098;-84
2021/04/19 16:16:56;;;;;;;21.42;12.85;;;24.00;41.70;;;;;;3543000;40;20077;-85
2021/04/19 16:19:27;;;;;;;19.55;11.65;;;24.00;41.30;;;;;;3548673;40;20066;-84
2021/04/19 16:22:00;;;;;;;18.95;11.05;;;24.10;41.10;;;;;;3551039;40;20442;-84
2021/04/19 16:24:30;;;;;;;22.17;12.02;;;24.20;40.80;;;;;;3542342;40;20098;-84
2021/04/19 16:27:02;;;;;;;17.58;10.85;;;24.20;40.50;;;;;;3520185;40;20068;-83
2021/04/19 16:29:32;;;;;;;17.83;11.18;;;24.10;40.70;;;;;;3514638;40;20104;-80
2021/04/19 16:32:06;;;;;;;17.67;11.45;;;24.10;40.90;;;;;;3506879;41;20092;-81
2021/04/19 16:34:33;;;;;;;19.02;11.15;;;24.10;40.90;;;;;;3495624;41;20076;-82
2021/04/19 16:37:03;;;;;;;20.35;12.45;;;24.10;41.00;;;;;;3502991;41;20091;-81
2021/04/19 16:39:33;;;;;;;23.80;14.38;;;23.90;41.00;;;;;;3500573;40;20380;-82
2021/04/19 16:42:01;;;;;;;21.35;13.40;;;23.70;41.70;;;;;;3511439;40;20099;-79
2021/04/19 16:44:28;;;;;;;22.17;12.93;;;23.50;42.50;;;;;;3513221;40;20091;-82
2021/04/19 16:47:06;;;;;;;20.77;13.35;;;23.30;44.10;;;;;;3512430;40;20103;-82
2021/04/19 16:49:34;;;;;;;20.10;12.63;;;22.90;44.90;;;;;;3504102;40;20083;-80
2021/04/19 16:52:05;;;;;;;20.23;12.60;;;22.50;45.90;;;;;;3512170;40;20118;-83
2021/04/19 16:54:33;;;;;;;17.95;12.25;;;22.10;46.90;;;;;;3504207;40;20083;-82
2021/04/19 16:57:00;;;;;;;18.45;11.32;;;21.80;47.60;;;;;;3510440;41;20405;-80
2021/04/19 16:59:28;;;;;;;19.50;13.55;;;21.80;48.40;;;;;;3505224;40;20091;-81
2021/04/19 17:01:56;;;;;;;24.50;14.68;;;21.70;48.40;;;;;;3504630;40;20091;-80
2021/04/19 17:04:24;;;;;;;18.67;12.10;;;21.60;48.80;;;;;;3512616;40;20075;-82
2021/04/19 17:07:01;;;;;;;19.02;13.05;;;21.30;49.30;;;;;;3505077;40;20104;-81
2021/04/19 17:09:31;;;;;;;20.75;13.13;;;21.10;50.10;;;;;;3504052;40;20471;-80
2021/04/19 17:12:01;;;;;;;23.38;14.23;;;20.70;51.50;;;;;;3536043;40;20090;-80
2021/04/19 17:14:42;;;;;;;20.10;13.50;;;20.40;53.00;;;;;;3536398;40;20310;-82
2021/04/19 17:17:14;;;;;;;21.85;14.13;;;20.00;54.80;;;;;;3522963;40;20071;-81
2021/04/19 17:20:10;;;;;;;31.55;14.35;;;19.60;56.00;;;;;;3536432;40;20102;-84
2021/04/19 17:22:40;;;;;;;22.73;13.93;;;19.20;57.50;;;;;;3525576;40;20083;-83
2021/04/19 17:25:18;;;;;;;23.00;14.23;;;18.90;58.90;;;;;;3541112;40;20071;-82
2021/04/19 17:27:53;;;;;;;22.10;14.35;;;18.60;60.20;;;;;;3546128;40;20095;-84
2021/04/19 17:30:23;;;;;;;21.90;13.68;;;18.30;61.20;;;;;;3545803;40;20086;-85
2021/04/19 17:32:58;;;;;;;18.98;12.70;;;18.00;63.30;;;;;;3543345;40;20075;-83
2021/04/19 17:35:29;;;;;;;25.80;15.00;;;17.70;65.60;;;;;;3526766;40;20107;-85
2021/04/19 17:38:05;;;;;;;24.80;14.82;;;17.50;67.60;;;;;;3536641;40;20086;-86
2021/04/19 17:40:35;;;;;;;22.55;13.98;;;17.10;71.80;;;;;;3535253;40;20063;-85
2021/04/19 17:43:14;;;;;;;22.83;13.90;;;16.80;77.20;;;;;;3525464;40;20304;-82
2021/04/19 17:45:42;;;;;;;23.92;14.25;;;16.40;84.20;;;;;;3538947;40;20337;-84
2021/04/19 17:48:12;;;;;;;19.67;13.63;;;16.10;90.50;;;;;;3523146;40;20067;-86
2021/04/19 17:50:40;;;;;;;22.63;13.65;;;15.80;92.80;;;;;;3534542;40;20286;-85
2021/04/19 17:53:10;;;;;;;22.10;13.43;;;15.50;94.70;;;;;;3537282;40;20081;-84
2021/04/19 17:55:40;;;;;;;22.88;13.77;;;15.10;96.80;;;;;;3528525;40;20062;-85
2021/04/19 17:58:10;;;;;;;24.05;13.88;;;14.80;98.90;;;;;;3535976;40;20063;-84
2021/04/19 18:00:39;;;;;;;28.63;15.25;;;14.50;99.90;;;;;;3529343;40;20062;-82
2021/04/19 18:03:40;;;;;;;19.90;13.43;;;14.30;99.90;;;;;;3608918;39;20469;-81
2021/04/19 18:06:09;;;;;;;23.73;14.50;;;14.20;99.90;;;;;;3586735;39;20118;-81
2021/04/19 18:11:25;;;;;;;19.45;12.77;;;14.00;99.90;;;;;;3592720;40;20064;-80
2021/04/19 18:14:05;;;;;;;22.52;13.52;;;13.90;99.90;;;;;;3592878;40;20084;-81
2021/04/19 18:16:43;;;;;;;23.02;13.30;;;14.00;99.90;;;;;;3584020;40;20379;-80
2021/04/19 18:19:13;;;;;;;17.13;11.15;;;13.70;99.90;;;;;;3582205;40;20080;-80
2021/04/19 18:21:44;;;;;;;;;;;13.50;99.90;;;;;;3587424;40;20092;-81
2021/04/19 18:24:19;;;;;;;20.63;12.13;;;13.30;99.90;;;;;;3596583;39;19972;-80
2021/04/19 18:26:59;;;;;;;21.10;12.48;;;13.10;99.90;;;;;;3583301;39;20091;-81
2021/04/19 18:29:33;;;;;;;21.35;13.60;;;12.90;99.90;;;;;;3591598;40;20416;-81
2021/04/19 18:32:03;;;;;;;24.10;12.95;;;12.80;99.90;;;;;;3569757;40;20291;-86
2021/04/19 18:34:35;;;;;;;21.75;12.68;;;12.70;99.90;;;;;;3570644;40;20093;-84
2021/04/19 18:37:07;;;;;;;24.17;14.10;;;12.50;99.90;;;;;;3567388;40;20037;-83
2021/04/19 18:39:35;;;;;;;22.13;12.77;;;12.40;99.90;;;;;;3575257;40;20060;-82
2021/04/19 18:42:03;;;;;;;19.77;12.70;;;12.30;99.90;;;;;;3574109;40;20049;-84
2021/04/19 18:44:40;;;;;;;24.55;13.38;;;12.10;99.90;;;;;;3567980;40;20105;-84
2021/04/19 18:47:12;;;;;;;21.63;12.38;;;12.10;99.90;;;;;;3563196;40;20101;-83
2021/04/19 18:49:44;;;;;;;25.20;12.15;;;12.00;99.90;;;;;;3565933;40;20069;-84
2021/04/19 18:52:17;;;;;;;23.02;12.38;;;12.00;99.90;;;;;;3562620;40;20120;-83
2021/04/19 18:54:46;;;;;;;22.23;12.82;;;12.00;99.90;;;;;;3548551;40;20098;-82
2021/04/19 18:57:15;;;;;;;22.00;13.52;;;11.90;99.90;;;;;;3549835;40;20066;-83
2021/04/19 19:00:02;;;;;;;20.95;12.90;;;11.80;99.90;;;;;;3553781;40;20063;-83
2021/04/19 19:02:51;;;;;;;22.42;12.80;;;11.70;99.90;;;;;;3547735;40;20097;-83
2021/04/19 19:05:32;;;;;;;25.80;13.95;;;11.70;99.90;;;;;;3558415;40;20414;-83
2021/04/19 19:08:02;;;;;;;21.90;13.57;;;11.70;99.90;;;;;;3569805;40;20081;-85
2021/04/19 19:10:34;;;;;;;26.05;14.77;;;11.60;99.90;;;;;;3566714;40;20090;-84
2021/04/19 19:13:03;;;;;;;24.30;14.57;;;11.70;99.90;;;;;;3559580;40;20172;-83
2021/04/19 19:15:32;;;;;;;24.27;14.43;;;11.80;99.90;;;;;;3561731;40;20223;-85
2021/04/19 19:18:02;;;;;;;24.95;15.07;;;11.80;99.90;;;;;;3547233;40;20066;-85
2021/04/19 19:20:32;;;;;;;21.65;14.15;;;11.90;99.90;;;;;;3553491;40;20121;-84
2021/04/19 19:23:11;;;;;;;27.50;15.02;;;11.80;99.90;;;;;;3554854;40;20081;-84
2021/04/19 19:26:19;;;;;;;25.33;14.77;;;11.80;99.90;;;;;;3564333;40;20058;-82
2021/04/19 19:28:52;;;;;;;25.35;15.30;;;11.70;99.90;;;;;;3564861;40;20081;-83
2021/04/19 19:32:02;;;;;;;23.42;14.10;;;11.70;99.90;;;;;;3558248;40;20062;-82
2021/04/19 19:34:35;;;;;;;24.10;14.30;;;11.70;99.90;;;;;;3579162;40;20049;-84
2021/04/19 19:37:11;;;;;;;39.30;18.02;;;11.70;99.90;;;;;;3576185;40;20084;-83
2021/04/19 19:40:01;;;;;;;27.08;15.88;;;11.70;99.90;;;;;;3572705;40;20073;-83
2021/04/19 19:42:34;;;;;;;28.33;16.20;;;11.60;99.90;;;;;;3569783;40;20043;-84
2021/04/19 19:45:03;;;;;;;28.58;15.52;;;11.80;99.90;;;;;;3537584;40;20066;-84
2021/04/19 19:50:32;;;;;;;27.90;16.48;;;11.80;99.90;;;;;;3562298;40;20072;-82
2021/04/19 19:53:08;;;;;;;28.25;17.02;;;11.80;99.90;;;;;;3562251;40;20096;-84
2021/04/19 19:55:37;;;;;;;33.60;17.35;;;11.80;99.90;;;;;;3553497;40;20437;-84
2021/04/19 19:58:14;;;;;;;30.20;17.30;;;11.70;99.90;;;;;;3554540;40;20093;-85
2021/04/19 20:00:47;;;;;;;34.83;19.30;;;11.60;99.90;;;;;;3547780;40;20076;-82
2021/04/19 20:03:22;;;;;;;30.30;17.83;;;11.60;99.90;;;;;;3553145;40;20066;-83
2021/04/19 20:05:51;;;;;;;37.88;18.42;;;11.60;99.90;;;;;;3554204;40;20162;-83
2021/04/19 20:08:20;;;;;;;29.25;17.35;;;11.60;99.90;;;;;;3570356;40;20406;-85
2021/04/19 20:10:57;;;;;;;31.00;18.02;;;11.50;99.90;;;;;;3550490;40;20070;-82
2021/04/19 20:13:32;;;;;;;31.65;18.45;;;11.40;99.90;;;;;;3541961;40;20082;-81
2021/04/19 20:16:00;;;;;;;32.10;18.38;;;11.30;99.90;;;;;;3547541;40;20100;-83
2021/04/19 20:18:28;;;;;;;33.60;17.85;;;11.20;99.90;;;;;;3543016;40;20090;-83
2021/04/19 20:20:58;;;;;;;33.03;18.27;;;11.20;99.90;;;;;;3550369;40;20066;-87
2021/04/19 20:23:31;;;;;;;36.20;19.42;;;11.30;99.90;;;;;;3544998;40;20418;-83
2021/04/19 20:26:01;;;;;;;33.97;18.80;;;11.50;99.90;;;;;;3526754;40;20709;-85
2021/04/19 20:28:30;;;;;;;34.20;19.48;;;11.40;99.90;;;;;;3534978;40;20067;-83
2021/04/19 20:30:58;;;;;;;31.42;18.65;;;11.30;99.90;;;;;;3540919;40;20094;-84
2021/04/19 20:33:35;;;;;;;38.33;19.60;;;11.30;99.90;;;;;;3548364;40;20074;-84
2021/04/19 20:36:11;;;;;;;34.28;19.45;;;11.30;99.90;;;;;;3566577;40;20221;-84
2021/04/19 20:38:42;;;;;;;35.28;18.08;;;11.30;99.90;;;;;;3558243;40;20098;-85
2021/04/19 20:41:09;;;;;;;34.70;20.35;;;11.40;99.90;;;;;;3557696;40;20098;-84
2021/04/19 20:43:38;;;;;;;33.70;19.58;;;11.40;99.90;;;;;;3562708;40;20418;-84
2021/04/19 20:46:06;;;;;;;32.28;19.08;;;11.40;99.90;;;;;;3559990;40;20062;-83
2021/04/19 20:48:36;;;;;;;31.42;18.73;;;11.20;99.90;;;;;;3560770;40;20081;-81
2021/04/19 20:51:04;;;;;;;32.30;19.80;;;11.20;99.90;;;;;;3586934;40;20084;-84
2021/04/19 20:53:32;;;;;;;31.75;19.25;;;11.20;99.90;;;;;;3584827;40;20081;-83
2021/04/19 20:56:04;;;;;;;34.30;18.85;;;11.30;99.90;;;;;;3583756;40;20333;-84
2021/04/19 20:58:34;;;;;;;35.15;20.60;;;11.30;99.90;;;;;;3584784;40;20077;-83
2021/04/19 21:01:03;;;;;;;29.60;18.55;;;11.40;99.90;;;;;;3577097;40;20081;-84
2021/04/19 21:03:31;;;;;;;32.25;18.75;;;11.50;99.90;;;;;;3576848;40;20073;-83
2021/04/19 21:06:00;;;;;;;32.63;19.20;;;11.50;99.90;;;;;;3583223;40;20343;-84
2021/04/19 21:08:27;;;;;;;32.50;19.50;;;11.60;99.90;;;;;;3583965;40;20322;-84
2021/04/19 21:10:58;;;;;;;32.83;19.52;;;11.60;99.90;;;;;;3575816;40;20088;-83
2021/04/19 21:13:27;;;;;;;37.15;20.48;;;11.60;99.90;;;;;;3584289;40;20083;-83
2021/04/19 21:15:55;;;;;;;;;;;11.70;99.90;;;;;;3576430;40;20077;-82
2021/04/19 21:18:23;;;;;;;31.42;18.83;;;11.70;99.90;;;;;;3574293;40;19976;-80
2021/04/19 21:20:53;;;;;;;35.85;20.60;;;11.70;99.90;;;;;;3585000;40;20420;-82
2021/04/19 21:23:21;;;;;;;32.15;20.00;;;11.70;99.90;;;;;;3589744;40;20381;-81
2021/04/19 21:25:50;;;;;;;32.83;19.83;;;11.80;99.90;;;;;;3592398;40;20068;-81
2021/04/19 21:28:17;;;;;;;;;;;11.80;99.90;;;;;;3579958;40;20089;-82
2021/04/19 21:30:46;;;;;;;36.45;18.73;;;11.80;99.90;;;;;;3562542;40;19973;-80
2021/04/19 21:33:14;;;;;;;34.65;19.58;;;11.80;99.90;;;;;;3581138;40;20093;-83
2021/04/19 21:35:42;;;;;;;;;;;11.70;99.90;;;;;;3580925;40;20081;-83
2021/04/19 21:38:10;;;;;;;35.40;20.05;;;11.70;99.90;;;;;;3580959;40;19969;-83
2021/04/19 21:40:38;;;;;;;35.10;19.80;;;11.70;99.90;;;;;;3583792;40;20061;-84
2021/04/19 21:43:11;;;;;;;32.00;19.27;;;11.70;99.90;;;;;;3577909;40;20073;-81
2021/04/19 21:45:49;;;;;;;36.00;20.25;;;11.70;99.90;;;;;;3573701;40;20135;-82
2021/04/19 21:48:22;;;;;;;33.58;19.73;;;11.70;99.90;;;;;;3581540;40;20298;-83
2021/04/19 21:50:53;;;;;;;34.95;19.83;;;11.60;99.90;;;;;;3565713;40;20080;-81
2021/04/19 21:53:21;;;;;;;33.83;19.25;;;11.70;99.90;;;;;;3570236;40;20678;-83
2021/04/19 21:55:51;;;;;;;32.40;19.15;;;11.70;99.90;;;;;;3560898;40;20394;-83
2021/04/19 21:58:20;;;;;;;34.67;19.58;;;11.60;99.90;;;;;;3584486;40;20065;-83
2021/04/19 22:00:48;;;;;;;36.53;22.35;;;11.60;99.90;;;;;;3571938;40;20085;-82
2021/04/19 22:03:17;;;;;;;36.35;20.95;;;11.60;99.90;;;;;;3569908;40;20093;-83
2021/04/19 22:05:46;;;;;;;34.57;20.63;;;11.60;99.90;;;;;;3573071;40;20097;-82
2021/04/19 22:08:18;;;;;;;34.55;20.38;;;11.50;99.90;;;;;;3571231;40;20080;-83
2021/04/19 22:10:46;;;;;;;32.03;19.77;;;11.40;99.90;;;;;;3588392;40;20420;-83
2021/04/19 22:13:17;;;;;;;35.83;21.15;;;11.40;99.90;;;;;;3571513;40;20088;-82
2021/04/19 22:15:46;;;;;;;32.28;19.52;;;11.40;99.90;;;;;;3579888;40;20088;-84
2021/04/19 22:18:15;;;;;;;32.58;19.90;;;11.40;99.90;;;;;;3581005;40;20123;-84
2021/04/19 22:20:53;;;;;;;35.95;21.65;;;11.40;99.90;;;;;;3579967;40;20077;-81
2021/04/19 22:23:22;;;;;;;31.25;19.48;;;11.50;99.90;;;;;;3581426;40;20065;-81
2021/04/19 22:25:53;;;;;;;30.48;18.88;;;11.50;99.90;;;;;;3585644;40;20069;-82
2021/04/19 22:28:24;;;;;;;31.45;19.58;;;11.60;99.90;;;;;;3580723;40;20089;-83
2021/04/19 22:30:53;;;;;;;35.60;20.40;;;11.60;99.90;;;;;;3570568;40;20118;-82
2021/04/19 22:33:22;;;;;;;30.85;20.70;;;11.60;99.90;;;;;;3586691;40;20077;-82